Time;durP1;ratioP1;P1;durP2;ratioP2;P2;SDS_P1;SDS_P2;PMS_P1;PMS_P2;Temp;Humidity;BMP_temperature;BMP_pressure;BME280_temperature;BME280_humidity;BME280_pressure;Samples;Min_cycle;Max_cycle;Signal;HPM_P1;HPM_P2
2021/05/08 00:02:00;;;;;;;287.48;44.03;;;;;;;-150.07;45.54;54951.16;4981583;28;20023;-86
2021/05/08 00:04:26;;;;;;;287.38;50.40;;;;;;;-150.07;45.22;54951.16;4977750;28;20050;-85
2021/05/08 00:06:53;;;;;;;225.65;42.08;;;;;;;-150.07;45.59;54951.16;4975630;28;20030;-85
2021/05/08 00:09:20;;;;;;;222.45;42.63;;;;;;;-150.07;45.58;54946.97;4990047;28;20475;-85
2021/05/08 00:11:47;;;;;;;250.85;44.00;;;;;;;-150.07;45.16;54951.16;4989227;28;20023;-83
2021/05/08 00:14:14;;;;;;;240.30;45.97;;;;;;;-150.07;45.07;54951.16;4974478;28;20034;-82
2021/05/08 00:16:41;;;;;;;262.75;44.13;;;;;;;-150.07;45.07;54949.06;4976049;28;20085;-85
2021/05/08 00:19:08;;;;;;;238.98;45.35;;;;;;;-150.07;45.69;54949.06;4993274;28;20395;-85
2021/05/08 00:21:34;;;;;;;258.92;50.00;;;;;;;-150.07;45.03;54951.16;4992889;28;20061;-84
2021/05/08 00:24:01;;;;;;;260.90;49.33;;;;;;;-150.07;45.47;54951.16;4974086;28;20042;-84
2021/05/08 00:26:28;;;;;;;288.80;50.42;;;;;;;-150.07;44.90;54951.16;4974934;28;20026;-85
2021/05/08 00:28:56;;;;;;;249.63;45.40;;;;;;;-150.07;44.61;54949.06;4992502;28;20069;-86
2021/05/08 00:31:23;;;;;;;262.90;45.70;;;;;;;-150.07;44.84;54949.06;4975181;28;20018;-84
2021/05/08 00:33:50;;;;;;;247.63;39.90;;;;;;;-150.07;44.20;54949.06;4974522;28;20030;-84
2021/05/08 00:36:17;;;;;;;262.10;45.63;;;;;;;-150.07;44.40;54951.16;4993205;28;20531;-85
2021/05/08 00:38:44;;;;;;;244.38;42.03;;;;;;;-150.07;43.96;54949.06;4993411;28;20045;-84
2021/05/08 00:41:11;;;;;;;222.50;40.70;;;;;;;-150.07;42.94;54951.16;4978222;28;20108;-85
2021/05/08 00:43:38;;;;;;;228.27;40.08;;;;;;;-150.07;42.91;54949.06;4982001;28;20151;-85
2021/05/08 00:46:07;;;;;;;256.85;45.58;;;;;;;-150.07;43.71;54949.06;4993491;28;20451;-85
2021/05/08 00:48:35;;;;;;;219.13;39.40;;;;;;;-150.07;43.38;54951.16;4997633;28;20476;-87
2021/05/08 00:51:02;;;;;;;224.63;40.90;;;;;;;-150.07;43.67;54951.16;4975764;28;20041;-84
2021/05/08 00:53:29;;;;;;;244.60;39.60;;;;;;;-150.07;43.83;54951.16;4974560;28;20039;-85
2021/05/08 00:56:15;;;;;;;254.45;39.30;;;;;;;-150.07;44.01;54951.16;4992756;28;20034;-83
2021/05/08 00:58:43;;;;;;;207.43;39.78;;;;;;;-150.07;43.33;54951.16;4973398;28;20057;-82
2021/05/08 01:01:10;;;;;;;252.50;41.45;;;;;;;-150.07;43.74;54951.16;4974591;28;20039;-84
2021/05/08 01:03:37;;;;;;;234.27;38.15;;;;;;;-150.07;43.58;54951.16;4972267;28;20034;-84
2021/05/08 01:06:04;;;;;;;212.60;39.88;;;;;;;-150.07;42.87;54951.16;4991694;28;20033;-84
2021/05/08 01:08:35;;;;;;;243.55;50.10;;;;;;;-150.07;42.84;54951.16;4996204;28;20134;-90
2021/05/08 01:11:02;;;;;;;222.57;43.03;;;;;;;-150.07;42.86;54951.16;4968046;28;20038;-87
2021/05/08 01:13:30;;;;;;;228.10;39.30;;;;;;;-150.07;42.71;54949.06;4977165;28;20604;-84
2021/05/08 01:15:57;;;;;;;215.10;38.00;;;;;;;-150.07;42.43;54951.16;4986977;28;20044;-84
2021/05/08 01:18:24;;;;;;;244.27;45.80;;;;;;;-150.07;42.86;54951.16;4976317;28;20034;-85
2021/05/08 01:20:51;;;;;;;214.40;38.38;;;;;;;-150.07;43.30;54949.06;4985701;28;20034;-85
2021/05/08 01:23:19;;;;;;;221.85;44.10;;;;;;;-150.07;43.15;54951.16;4989655;28;20034;-82
2021/05/08 01:25:46;;;;;;;231.05;41.85;;;;;;;-150.07;43.09;54949.06;4975156;28;20035;-80
2021/05/08 01:28:13;;;;;;;220.15;37.58;;;;;;;-150.07;42.89;54946.97;4991986;28;20456;-82
2021/05/08 01:30:39;;;;;;;213.43;37.03;;;;;;;-150.07;42.84;54951.16;4992094;28;20028;-82
2021/05/08 01:33:07;;;;;;;212.55;38.60;;;;;;;-150.07;43.25;54946.97;4974302;28;20030;-85
2021/05/08 01:35:36;;;;;;;213.27;41.60;;;;;;;-150.07;42.99;54946.97;4991198;28;20036;-83
2021/05/08 01:38:03;;;;;;;176.65;36.63;;;;;;;-150.07;43.57;54949.06;4989557;28;20022;-82
2021/05/08 01:40:33;;;;;;;224.15;40.25;;;;;;;-150.07;43.17;54946.97;4995233;28;20069;-84
2021/05/08 01:43:00;;;;;;;246.93;43.40;;;;;;;-150.07;42.84;54951.16;4976210;28;21414;-85
2021/05/08 01:45:27;;;;;;;198.13;36.40;;;;;;;-150.07;42.59;54949.06;4974767;28;20480;-85
2021/05/08 01:47:55;;;;;;;181.90;33.40;;;;;;;-150.07;42.23;54951.16;4973728;28;20038;-86
2021/05/08 01:50:25;;;;;;;193.45;37.50;;;;;;;-150.07;41.98;54946.97;4975031;28;20034;-85
2021/05/08 01:52:52;;;;;;;192.88;35.50;;;;;;;-150.07;41.61;54946.97;4975006;28;20021;-85
2021/05/08 01:55:25;;;;;;;195.88;34.80;;;;;;;-150.07;41.61;54944.88;4976921;28;20030;-84
2021/05/08 01:57:54;;;;;;;182.50;35.30;;;;;;;-150.07;41.54;54949.06;4996628;28;20057;-84
2021/05/08 02:00:32;;;;;;;196.68;38.67;;;;;;;-150.07;41.54;54949.06;4981319;28;20046;-85
2021/05/08 02:03:00;;;;;;;198.43;38.70;;;;;;;-150.07;41.34;54949.06;4998619;28;20035;-83
2021/05/08 02:05:32;;;;;;;215.20;40.38;;;;;;;-150.07;39.69;54949.06;4989218;28;20058;-85
2021/05/08 02:08:01;;;;;;;209.25;38.65;;;;;;;-150.07;40.25;54951.16;4997118;28;20101;-86
2021/05/08 02:10:29;;;;;;;206.77;38.95;;;;;;;-150.07;39.94;54951.16;4997749;28;20033;-84
2021/05/08 02:13:00;;;;;;;197.20;33.03;;;;;;;-150.07;40.40;54951.16;4975626;28;20097;-86
2021/05/08 02:15:28;;;;;;;208.70;35.72;;;;;;;-150.07;40.08;54946.97;4976816;28;20089;-86
2021/05/08 02:17:54;;;;;;;186.40;37.67;;;;;;;-150.07;40.28;54949.06;4976000;28;20037;-83
2021/05/08 02:20:26;;;;;;;195.65;34.65;;;;;;;-150.07;40.04;54949.06;4993696;28;20030;-87
2021/05/08 02:22:55;;;;;;;192.60;33.67;;;;;;;-150.07;40.03;54949.06;4980627;28;20395;-85
2021/05/08 02:25:23;;;;;;;202.02;36.78;;;;;;;-150.07;40.98;54949.06;4977830;28;20050;-86
2021/05/08 02:27:50;;;;;;;206.30;42.40;;;;;;;-150.07;40.90;54951.16;4980791;28;20092;-84
2021/05/08 02:30:25;;;;;;;193.65;35.50;;;;;;;-150.07;40.70;54951.16;4995575;28;20030;-85
2021/05/08 02:32:52;;;;;;;178.02;33.30;;;;;;;-150.07;40.86;54951.16;4994214;28;20033;-85
2021/05/08 02:35:20;;;;;;;200.15;35.78;;;;;;;-150.07;41.28;54946.97;4993618;28;20019;-85
2021/05/08 02:37:48;;;;;;;201.57;36.15;;;;;;;-150.07;40.85;54951.16;4975589;28;20113;-86
2021/05/08 02:40:20;;;;;;;173.52;32.38;;;;;;;-150.07;40.57;54951.16;4976058;28;20038;-86
2021/05/08 02:42:47;;;;;;;175.55;33.45;;;;;;;-150.07;40.18;54949.06;4995538;28;20102;-84
2021/05/08 02:45:15;;;;;;;191.02;30.25;;;;;;;-150.07;39.95;54949.06;4993578;28;20027;-86
2021/05/08 02:47:44;;;;;;;174.30;28.33;;;;;;;-150.07;39.87;54951.16;4993530;28;20506;-85
2021/05/08 02:50:13;;;;;;;186.15;31.90;;;;;;;-150.07;39.61;54946.97;4996340;28;20041;-87
2021/05/08 02:52:41;;;;;;;123.67;24.80;;;;;;;-150.07;38.93;54949.06;4988102;28;20085;-86
2021/05/08 02:55:09;;;;;;;171.57;29.80;;;;;;;-150.07;38.55;54951.16;4980469;28;20286;-86
2021/05/08 02:57:38;;;;;;;168.65;30.50;;;;;;;-150.07;38.44;54949.06;4979053;28;20504;-87
2021/05/08 03:00:09;;;;;;;172.48;35.83;;;;;;;-150.07;37.98;54949.06;4996077;28;20052;-86
2021/05/08 03:02:37;;;;;;;141.32;26.52;;;;;;;-150.07;37.30;54949.06;4978643;28;20086;-86
2021/05/08 03:05:04;;;;;;;149.75;25.58;;;;;;;-150.07;37.50;54951.16;4995624;28;20026;-86
2021/05/08 03:07:31;;;;;;;164.25;24.55;;;;;;;-150.07;37.28;54951.16;4987174;28;20049;-86
2021/05/08 03:09:58;;;;;;;160.15;27.35;;;;;;;-150.07;37.21;54946.97;4996001;28;20096;-86
2021/05/08 03:12:25;;;;;;;139.05;22.05;;;;;;;-150.07;37.30;54951.16;4978431;28;20084;-86
2021/05/08 03:14:52;;;;;;;169.18;28.95;;;;;;;-150.07;37.37;54946.97;4995596;28;20089;-85
2021/05/08 03:17:19;;;;;;;138.93;23.85;;;;;;;-150.07;37.67;54949.06;4977775;28;20133;-85
2021/05/08 03:19:45;;;;;;;161.45;27.88;;;;;;;-150.07;37.68;54951.16;4994570;28;20046;-86
2021/05/08 03:22:13;;;;;;;128.00;23.70;;;;;;;-150.07;37.78;54946.97;4994928;28;20022;-85
2021/05/08 03:24:39;;;;;;;134.43;22.80;;;;;;;-150.07;37.32;54949.06;4995206;28;20483;-87
2021/05/08 03:27:06;;;;;;;153.48;25.45;;;;;;;-150.07;36.88;54946.97;4977344;28;20785;-87
2021/05/08 03:29:33;;;;;;;129.70;23.15;;;;;;;-150.07;37.22;54951.16;4976480;28;20026;-85
2021/05/08 03:32:00;;;;;;;132.38;21.45;;;;;;;-150.07;37.63;54951.16;4977159;28;20121;-85
2021/05/08 03:34:27;;;;;;;128.18;24.98;;;;;;;-150.07;37.69;54946.97;5000717;28;20506;-85
2021/05/08 03:36:57;;;;;;;145.48;28.85;;;;;;;-150.07;37.80;54951.16;5010328;28;20039;-86
2021/05/08 03:39:24;;;;;;;119.32;25.65;;;;;;;-150.07;37.69;54951.16;4977516;28;20044;-84
2021/05/08 03:41:51;;;;;;;125.13;22.92;;;;;;;-150.07;37.70;54949.06;4976999;28;20526;-84
2021/05/08 03:44:18;;;;;;;113.93;24.25;;;;;;;-150.07;37.71;54946.97;4994972;28;20077;-85
2021/05/08 03:46:45;;;;;;;142.57;22.13;;;;;;;-150.07;37.93;54949.06;4976876;28;20026;-86
2021/05/08 03:49:12;;;;;;;141.70;23.40;;;;;;;-150.07;38.21;54946.97;4981649;28;20026;-86
2021/05/08 03:51:39;;;;;;;149.60;23.75;;;;;;;-150.07;38.39;54946.97;4983154;28;20383;-86
2021/05/08 03:54:06;;;;;;;155.15;28.48;;;;;;;-150.07;38.32;54949.06;4984117;28;20108;-85
2021/05/08 03:56:33;;;;;;;136.32;22.75;;;;;;;-150.07;38.22;54951.16;4999448;28;20033;-84
2021/05/08 03:59:00;;;;;;;135.15;24.75;;;;;;;-150.07;38.50;54949.06;4995157;28;20056;-86
2021/05/08 04:01:27;;;;;;;120.30;18.80;;;;;;;-150.07;38.19;54949.06;4977171;28;20026;-85
2021/05/08 04:03:54;;;;;;;120.22;19.20;;;;;;;-150.07;37.93;54946.97;4978524;28;20054;-85
2021/05/08 04:06:21;;;;;;;117.75;23.98;;;;;;;-150.07;38.09;54951.16;4979059;28;20026;-85
2021/05/08 04:08:48;;;;;;;121.38;22.77;;;;;;;-150.07;37.74;54946.97;4978537;28;20022;-86
2021/05/08 04:11:15;;;;;;;113.22;20.08;;;;;;;-150.07;37.73;54951.16;4977996;28;20062;-85
2021/05/08 04:13:42;;;;;;;108.30;19.17;;;;;;;-150.07;37.15;54949.06;4977879;28;20030;-85
2021/05/08 04:16:09;;;;;;;100.53;18.92;;;;;;;-150.07;37.15;54949.06;4977363;28;20092;-84
2021/05/08 04:18:37;;;;;;;95.63;18.33;;;;;;;-150.07;36.95;54951.16;4976854;28;20030;-86
2021/05/08 04:21:04;;;;;;;97.53;18.48;;;;;;;-150.07;36.89;54951.16;4993320;28;20030;-86
2021/05/08 04:23:31;;;;;;;98.32;17.02;;;;;;;-150.07;36.63;54949.06;4994337;28;20034;-86
2021/05/08 04:25:58;;;;;;;80.78;14.23;;;;;;;-150.07;36.46;54951.16;4975851;28;20026;-85
2021/05/08 04:28:25;;;;;;;88.78;16.55;;;;;;;-150.07;36.43;54951.16;4975502;28;20054;-86
2021/05/08 04:30:52;;;;;;;86.40;14.13;;;;;;;-150.07;36.60;54946.97;4976062;28;20049;-86
2021/05/08 04:33:19;;;;;;;94.72;17.60;;;;;;;-150.07;37.13;54951.16;4994478;28;20508;-84
2021/05/08 04:35:46;;;;;;;111.15;18.33;;;;;;;-150.07;37.26;54949.06;4976245;28;20026;-85
2021/05/08 04:38:13;;;;;;;118.57;21.15;;;;;;;-150.07;37.40;54949.06;4976806;28;20173;-85
2021/05/08 04:40:41;;;;;;;103.07;17.05;;;;;;;-150.07;37.33;54946.97;4976718;28;20045;-84
2021/05/08 04:43:09;;;;;;;125.32;21.92;;;;;;;-150.07;37.40;54949.06;4977650;28;20069;-85
2021/05/08 04:45:36;;;;;;;91.57;18.98;;;;;;;-150.07;37.53;54949.06;4994282;28;20035;-87
2021/05/08 04:48:03;;;;;;;113.90;18.20;;;;;;;-150.07;37.32;54951.16;4976756;28;20851;-85
2021/05/08 04:50:30;;;;;;;117.07;20.17;;;;;;;-150.07;37.35;54949.06;4994307;28;20028;-86
2021/05/08 04:52:56;;;;;;;98.22;18.45;;;;;;;-150.07;36.96;54949.06;4976653;28;20033;-86
2021/05/08 04:55:23;;;;;;;117.53;19.70;;;;;;;-150.07;36.98;54949.06;4977573;28;20125;-85
2021/05/08 04:57:50;;;;;;;100.60;17.05;;;;;;;-150.07;36.66;54949.06;4977418;28;20053;-85
2021/05/08 05:00:18;;;;;;;112.90;20.15;;;;;;;-150.07;36.85;54944.88;4994694;28;20121;-87
2021/05/08 05:02:47;;;;;;;103.13;18.08;;;;;;;-150.07;36.96;54949.06;4989973;28;20037;-86
2021/05/08 05:05:15;;;;;;;99.53;20.70;;;;;;;-150.07;36.88;54949.06;4976359;28;20045;-86
2021/05/08 05:07:44;;;;;;;92.43;14.38;;;;;;;-150.07;37.15;54946.97;4993410;28;20061;-85
2021/05/08 05:10:12;;;;;;;91.10;17.45;;;;;;;-150.07;35.65;54946.97;4976346;28;20053;-86
2021/05/08 05:12:39;;;;;;;97.70;18.50;;;;;;;-150.07;36.10;54949.06;4976165;28;20097;-86
2021/05/08 05:15:09;;;;;;;104.72;17.23;;;;;;;-150.07;36.04;54951.16;4991724;28;20037;-85
2021/05/08 05:17:37;;;;;;;101.45;18.92;;;;;;;-150.07;35.79;54949.06;4993261;28;20030;-86
2021/05/08 05:20:05;;;;;;;101.45;18.58;;;;;;;-150.07;35.58;54951.16;4993950;28;20053;-85
2021/05/08 05:22:32;;;;;;;121.72;17.67;;;;;;;-150.07;35.17;54946.97;4992429;28;20030;-87
2021/05/08 05:24:58;;;;;;;84.30;20.20;;;;;;;-150.07;34.62;54946.97;4974882;28;20026;-86
2021/05/08 05:27:25;;;;;;;111.47;15.95;;;;;;;-150.07;34.70;54951.16;4975577;28;20022;-86
2021/05/08 05:29:52;;;;;;;103.25;16.23;;;;;;;-150.07;35.32;54946.97;4977206;28;20026;-86
2021/05/08 05:32:19;;;;;;;83.63;14.32;;;;;;;-150.07;35.09;54949.06;4977346;28;20048;-87
2021/05/08 05:34:46;;;;;;;95.00;16.63;;;;;;;-150.07;35.16;54951.16;4994991;28;20117;-86
2021/05/08 05:37:13;;;;;;;102.72;17.10;;;;;;;-150.07;34.61;54951.16;4977246;28;20476;-85
2021/05/08 05:39:40;;;;;;;83.55;15.35;;;;;;;-150.07;34.97;54951.16;4976712;28;20141;-87
2021/05/08 05:42:07;;;;;;;90.88;15.52;;;;;;;-150.07;34.28;54949.06;4976180;28;20030;-85
2021/05/08 05:44:34;;;;;;;117.78;20.70;;;;;;;-150.07;34.09;54949.06;4992171;28;20022;-87
2021/05/08 05:47:00;;;;;;;115.63;18.77;;;;;;;-150.07;34.39;54951.16;4992964;28;20033;-87
2021/05/08 05:49:27;;;;;;;101.80;17.83;;;;;;;-150.07;34.58;54946.97;4993647;28;20150;-86
2021/05/08 05:51:54;;;;;;;102.68;20.10;;;;;;;-150.07;34.00;54949.06;4984746;28;20030;-87
2021/05/08 05:54:21;;;;;;;129.63;26.02;;;;;;;-150.07;33.95;54949.06;4993349;28;20121;-86
2021/05/08 05:56:48;;;;;;;101.32;18.60;;;;;;;-150.07;33.83;54946.97;4976638;28;20029;-85
2021/05/08 05:59:15;;;;;;;89.72;16.75;;;;;;;-150.07;33.57;54951.16;4975453;28;20059;-87
2021/05/08 06:01:42;;;;;;;98.38;20.48;;;;;;;-150.07;33.69;54951.16;4962274;28;20038;-86
2021/05/08 06:04:08;;;;;;;102.20;17.92;;;;;;;-150.07;33.79;54951.16;4992895;28;20034;-86
2021/05/08 06:06:35;;;;;;;115.75;18.58;;;;;;;-150.07;33.82;54949.06;4975198;28;20030;-85
2021/05/08 06:09:02;;;;;;;121.13;21.58;;;;;;;-150.07;34.29;54949.06;4994430;28;20018;-85
2021/05/08 06:11:29;;;;;;;101.05;15.63;;;;;;;-150.07;34.07;54949.06;5004856;28;20034;-85
2021/05/08 06:13:56;;;;;;;113.85;18.45;;;;;;;-150.07;33.07;54951.16;5000575;28;20062;-85
2021/05/08 06:16:23;;;;;;;107.88;19.25;;;;;;;-150.07;33.80;54949.06;4980268;28;20117;-86
2021/05/08 06:18:50;;;;;;;108.20;19.48;;;;;;;-150.07;33.59;54951.16;4973035;28;20034;-85
2021/05/08 06:21:16;;;;;;;115.80;19.67;;;;;;;-150.07;33.98;54951.16;4981882;28;20026;-87
2021/05/08 06:23:43;;;;;;;95.43;18.92;;;;;;;-150.07;34.11;54949.06;4974248;28;20030;-85
2021/05/08 06:26:10;;;;;;;92.35;17.63;;;;;;;-150.07;34.44;54949.06;4995556;28;20033;-86
2021/05/08 06:28:37;;;;;;;96.82;16.65;;;;;;;-150.07;34.03;54951.16;4986413;28;20030;-87
2021/05/08 06:31:04;;;;;;;111.00;18.75;;;;;;;-150.07;34.99;54946.97;4986338;28;20030;-87
2021/05/08 06:33:31;;;;;;;96.40;16.70;;;;;;;-150.07;34.58;54951.16;4982114;28;20034;-87
2021/05/08 06:35:57;;;;;;;99.45;19.40;;;;;;;-150.07;34.54;54951.16;4997126;28;20029;-86
2021/05/08 06:38:24;;;;;;;113.43;16.42;;;;;;;-150.07;35.48;54951.16;4978619;28;20403;-85
2021/05/08 06:40:51;;;;;;;88.25;19.88;;;;;;;-150.07;35.60;54949.06;4995026;28;20037;-85
2021/05/08 06:43:18;;;;;;;116.25;19.45;;;;;;;-150.07;35.94;54949.06;4991229;28;20062;-85
2021/05/08 06:45:45;;;;;;;94.22;18.10;;;;;;;-150.07;36.33;54949.06;4978517;28;20026;-85
2021/05/08 06:48:13;;;;;;;106.72;19.52;;;;;;;-150.07;36.72;54946.97;4978211;28;20085;-86
2021/05/08 06:50:44;;;;;;;107.82;20.88;;;;;;;-150.07;37.20;54949.06;4994881;28;20106;-85
2021/05/08 06:53:11;;;;;;;98.05;19.50;;;;;;;-150.07;37.27;54951.16;4996370;28;20502;-87
2021/05/08 06:55:38;;;;;;;109.32;18.05;;;;;;;-150.07;37.86;54951.16;4996920;28;20029;-85
2021/05/08 06:58:06;;;;;;;118.30;24.08;;;;;;;-150.07;38.44;54946.97;4996609;28;20049;-85
2021/05/08 07:00:33;;;;;;;125.25;18.35;;;;;;;-150.07;38.47;54951.16;4996399;28;20469;-86
2021/05/08 07:02:59;;;;;;;125.30;21.38;;;;;;;-150.07;38.77;54946.97;4980907;28;20872;-85
2021/05/08 07:05:28;;;;;;;110.15;19.35;;;;;;;-150.07;38.69;54949.06;4978509;28;20022;-87
2021/05/08 07:08:06;;;;;;;105.55;20.25;;;;;;;-150.07;39.20;54946.97;4980025;28;20025;-83
2021/05/08 07:10:33;;;;;;;118.20;21.30;;;;;;;-150.07;40.18;54949.06;4977884;28;20063;-87
2021/05/08 07:13:00;;;;;;;125.25;23.85;;;;;;;-150.07;40.44;54946.97;4996809;28;20031;-86
2021/05/08 07:15:26;;;;;;;124.38;22.02;;;;;;;-150.07;40.88;54951.16;4973911;28;20121;-88
2021/05/08 07:18:05;;;;;;;114.70;22.35;;;;;;;-150.07;41.16;54951.16;4994693;28;20034;-87
2021/05/08 07:20:33;;;;;;;135.05;24.58;;;;;;;-150.07;41.60;54946.97;4983191;28;20034;-88
2021/05/08 07:23:01;;;;;;;115.88;24.35;;;;;;;-150.07;42.31;54949.06;4983042;28;20041;-87
2021/05/08 07:25:28;;;;;;;109.25;23.25;;;;;;;-150.07;42.63;54946.97;4990397;28;20808;-85
2021/05/08 07:28:10;;;;;;;146.85;23.58;;;;;;;-150.07;42.82;54946.97;5011194;28;20034;-87
2021/05/08 07:30:38;;;;;;;133.25;23.85;;;;;;;-150.07;43.31;54949.06;4989368;28;20046;-86
2021/05/08 07:33:06;;;;;;;117.88;23.60;;;;;;;-150.07;43.63;54951.16;4983684;28;20027;-87
2021/05/08 07:35:34;;;;;;;147.18;26.90;;;;;;;-150.07;44.11;54946.97;4982433;28;20046;-86
2021/05/08 07:38:01;;;;;;;127.35;24.05;;;;;;;-150.07;43.99;54946.97;4999898;28;20053;-85
2021/05/08 07:40:30;;;;;;;130.10;23.85;;;;;;;-150.07;44.07;54949.06;4998669;28;20073;-90
2021/05/08 07:43:00;;;;;;;148.95;24.77;;;;;;;-150.07;44.50;54951.16;4986251;28;20057;-90
2021/05/08 07:45:28;;;;;;;;;;;;;;;-150.07;45.46;54951.16;4998716;28;20037;-89
2021/05/08 07:47:57;;;;;;;115.72;21.40;;;;;;;-150.07;45.41;54949.06;4984131;28;19914;-89
2021/05/08 07:50:25;;;;;;;128.15;22.33;;;;;;;-150.07;46.17;54951.16;4984513;28;20030;-88
2021/05/08 07:52:53;;;;;;;134.10;24.08;;;;;;;-150.07;46.86;54949.06;4983433;28;20069;-91
2021/05/08 07:55:21;;;;;;;119.70;24.42;;;;;;;-150.07;46.57;54951.16;4997549;28;20034;-90
2021/05/08 07:57:48;;;;;;;128.57;22.27;;;;;;;-150.07;47.13;54946.97;4982462;28;20462;-90
2021/05/08 08:00:17;;;;;;;156.85;27.13;;;;;;;-150.07;47.44;54949.06;4982798;28;20041;-91
2021/05/08 08:02:44;;;;;;;138.23;27.48;;;;;;;-150.07;47.90;54944.88;4983565;28;20384;-90
2021/05/08 08:05:12;;;;;;;122.25;25.88;;;;;;;-150.07;47.90;54951.16;4981853;28;20064;-90
2021/05/08 08:07:39;;;;;;;132.30;22.58;;;;;;;-150.07;48.47;54946.97;4982152;28;20061;-91
2021/05/08 08:10:11;;;;;;;134.05;24.70;;;;;;;-150.07;48.56;54951.16;4984930;28;20039;-91
2021/05/08 08:12:42;;;;;;;154.38;26.08;;;;;;;-150.07;49.14;54949.06;5015956;28;20125;-93
2021/05/08 08:15:09;;;;;;;;;;;;;;;-150.07;49.50;54949.06;4986249;28;20053;-91
2021/05/08 08:17:37;;;;;;;128.88;25.83;;;;;;;-150.07;49.80;54946.97;4997539;28;19937;-85
2021/05/08 08:20:10;;;;;;;136.48;26.73;;;;;;;-150.07;50.02;54949.06;5000819;28;20109;-87
2021/05/08 08:22:38;;;;;;;133.57;22.80;;;;;;;-150.07;49.96;54949.06;4976441;28;20022;-83
2021/05/08 08:25:12;;;;;;;146.18;23.17;;;;;;;-150.07;50.03;54949.06;4978654;28;20031;-87
2021/05/08 08:27:40;;;;;;;146.13;25.30;;;;;;;-150.07;50.26;54949.06;4981205;28;20038;-88
2021/05/08 08:35:24;;;;;;;147.90;26.00;;;;;;;-150.07;51.85;54946.97;4992331;28;20065;-95
2021/05/08 08:38:11;;;;;;;123.75;25.35;;;;;;;-150.07;52.07;54951.16;5010825;23;20078;-96
2021/05/08 08:41:00;;;;;;;134.68;23.52;;;;;;;-150.07;52.71;54949.06;4988810;28;20049;-93
2021/05/08 08:43:26;;;;;;;109.53;22.98;;;;;;;-150.07;52.63;54951.16;5005313;28;20042;-90
2021/05/08 08:45:54;;;;;;;132.13;26.20;;;;;;;-150.07;53.33;54951.16;4974548;28;20054;-90
2021/05/08 08:48:22;;;;;;;149.77;26.10;;;;;;;-150.07;54.16;54951.16;4999353;28;20122;-92
2021/05/08 08:50:52;;;;;;;130.75;27.55;;;;;;;-150.07;54.63;54951.16;4996334;28;20034;-91
2021/05/08 08:53:25;;;;;;;156.18;26.13;;;;;;;-150.07;54.28;54944.88;5007673;28;20050;-94
2021/05/08 08:55:55;;;;;;;121.63;22.15;;;;;;;-150.07;54.83;54946.97;4981527;28;20035;-94
2021/05/08 08:58:31;;;;;;;140.80;25.80;;;;;;;-150.07;55.24;54946.97;5001431;28;20038;-95
2021/05/08 09:01:03;;;;;;;140.35;25.88;;;;;;;-150.07;55.10;54951.16;5002252;28;20093;-95
2021/05/08 09:03:30;;;;;;;130.75;27.15;;;;;;;-150.07;55.13;54951.16;5011269;28;20039;-90
2021/05/08 09:06:00;;;;;;;123.68;26.27;;;;;;;-150.07;55.60;54949.06;4991110;28;20061;-86
2021/05/08 09:08:35;;;;;;;135.27;25.67;;;;;;;-150.07;55.93;54951.16;5007439;28;20602;-93
2021/05/08 09:11:29;;;;;;;141.70;27.83;;;;;;;-150.07;55.80;54951.16;4994251;28;20061;-92
2021/05/08 09:14:30;;;;;;;149.38;23.48;;;;;;;-150.07;55.91;54949.06;4994358;28;20034;-95
2021/05/08 09:17:42;;;;;;;124.13;27.92;;;;;;;-150.07;55.69;54951.16;5002476;28;20049;-94
2021/05/08 09:20:11;;;;;;;119.50;28.08;;;;;;;-150.07;56.15;54951.16;5071106;23;20025;-90
2021/05/08 09:22:44;;;;;;;128.18;28.90;;;;;;;-150.07;55.71;54949.06;4984591;28;20054;-95
2021/05/08 09:25:16;;;;;;;157.93;27.42;;;;;;;-150.07;55.61;54951.16;4976704;28;20171;-95
2021/05/08 09:27:53;;;;;;;130.48;29.05;;;;;;;-150.07;55.47;54951.16;5024343;28;20006;-94
2021/05/08 09:30:26;;;;;;;144.77;24.40;;;;;;;-150.07;55.71;54951.16;4998563;28;20042;-92
2021/05/08 09:33:21;;;;;;;139.20;28.23;;;;;;;-150.07;56.13;54951.16;4998151;28;20026;-95
2021/05/08 09:38:32;;;;;;;145.43;24.77;;;;;;;-150.07;56.14;54951.16;5108465;23;20036;-95
2021/05/08 09:41:05;;;;;;;133.13;24.38;;;;;;;-150.07;56.23;54949.06;5022525;28;20045;-94
2021/05/08 09:43:34;;;;;;;136.48;23.52;;;;;;;-150.07;56.12;54951.16;4988562;28;20104;-92
2021/05/08 09:46:09;;;;;;;148.88;26.40;;;;;;;-150.07;57.31;54949.06;4991159;28;20070;-93
2021/05/08 09:48:38;;;;;;;147.05;31.08;;;;;;;-150.07;57.88;54949.06;4968408;28;20085;-85
2021/05/08 09:51:30;;;;;;;136.85;26.08;;;;;;;-150.07;57.41;54951.16;4968578;28;20558;-86
2021/05/08 09:54:13;;;;;;;148.32;29.88;;;;;;;-150.07;59.01;54951.16;4956626;28;20605;-86
2021/05/08 09:56:49;;;;;;;142.75;29.27;;;;;;;-150.07;59.71;54951.16;4950975;28;20034;-86
2021/05/08 09:59:42;;;;;;;127.43;27.60;;;;;;;-150.07;59.66;54951.16;4955515;28;20038;-85
2021/05/08 10:02:09;;;;;;;139.82;28.60;;;;;;;-150.07;59.67;54951.16;4964079;28;20186;-85
2021/05/08 10:04:45;;;;;;;162.48;31.05;;;;;;;-150.07;59.90;54951.16;4970878;28;20185;-82
2021/05/08 10:07:22;;;;;;;171.95;28.40;;;;;;;-150.07;60.53;54949.06;4968588;28;20043;-82
2021/05/08 10:09:56;;;;;;;149.52;27.35;;;;;;;-150.07;60.92;54949.06;4969275;28;20097;-82
2021/05/08 10:12:25;;;;;;;164.82;30.70;;;;;;;-150.07;60.02;54951.16;4968316;28;20035;-83
2021/05/08 10:14:54;;;;;;;176.85;32.00;;;;;;;-150.07;60.54;54951.16;4967548;28;20034;-81
2021/05/08 10:17:23;;;;;;;143.15;29.80;;;;;;;-150.07;60.72;54951.16;4957021;28;20039;-85
2021/05/08 10:20:11;;;;;;;144.82;29.77;;;;;;;-150.07;60.77;54951.16;4962687;28;20034;-88
2021/05/08 10:22:54;;;;;;;155.35;27.48;;;;;;;-150.07;60.04;54951.16;4952116;28;20031;-87
2021/05/08 10:25:21;;;;;;;177.55;31.67;;;;;;;-150.07;59.65;54949.06;4966223;28;20031;-83
2021/05/08 10:27:48;;;;;;;160.18;30.35;;;;;;;-150.07;59.12;54951.16;4992179;28;20045;-85
2021/05/08 10:30:39;;;;;;;163.18;29.35;;;;;;;-150.07;58.97;54951.16;5012863;28;20042;-87
2021/05/08 10:33:13;;;;;;;162.18;30.73;;;;;;;-150.07;59.52;54951.16;4994110;28;20058;-86
2021/05/08 10:35:47;;;;;;;160.40;31.08;;;;;;;-150.07;58.89;54946.97;4994566;28;20027;-87
2021/05/08 10:38:30;;;;;;;158.00;30.67;;;;;;;-150.07;59.73;54946.97;4994266;28;20137;-82
2021/05/08 10:41:05;;;;;;;169.93;32.03;;;;;;;-150.07;60.87;54951.16;4993033;28;20030;-85
2021/05/08 10:43:55;;;;;;;182.63;36.88;;;;;;;-150.07;61.63;54951.16;4991324;28;20058;-84
2021/05/08 10:46:24;;;;;;;144.68;31.92;;;;;;;-150.07;62.02;54951.16;4989020;28;20042;-87
2021/05/08 10:49:09;;;;;;;159.40;33.85;;;;;;;-150.07;62.39;54949.06;4992637;28;20038;-84
2021/05/08 10:52:01;;;;;;;171.18;34.13;;;;;;;-150.07;62.25;54946.97;4991884;28;20018;-90
2021/05/08 10:54:42;;;;;;;159.50;29.08;;;;;;;-150.07;61.99;54951.16;5016786;28;20054;-94
2021/05/08 10:57:26;;;;;;;156.27;34.60;;;;;;;-150.07;61.53;54949.06;5005263;28;20116;-90
2021/05/08 11:00:23;;;;;;;154.43;31.75;;;;;;;-150.07;62.53;54949.06;5013509;28;20383;-90
2021/05/08 11:02:50;;;;;;;174.63;35.80;;;;;;;-150.07;62.92;54949.06;5000095;28;20495;-94
2021/05/08 11:05:32;;;;;;;161.73;32.53;;;;;;;-150.07;62.93;54951.16;5000581;28;20121;-91
2021/05/08 11:07:59;;;;;;;176.40;35.88;;;;;;;-150.07;62.96;54949.06;4996800;28;20054;-91
2021/05/08 11:10:32;;;;;;;187.65;32.53;;;;;;;-150.07;63.67;54949.06;4999750;28;20033;-89
2021/05/08 11:13:17;;;;;;;165.60;33.80;;;;;;;-150.07;64.15;54951.16;5003928;28;20054;-90
2021/05/08 11:15:56;;;;;;;174.02;35.03;;;;;;;-150.07;64.47;54951.16;5001562;28;20031;-90